sensor_id;sensor_type;location;lat;lon;timestamp;pressure;altitude;pressure_sealevel;temperature;humidity
76460;BME280;65299;46.084;18.762;2023-10-13T00:01:57;100916.47;;;13.29;81.69
76460;BME280;65299;46.084;18.762;2023-10-13T00:05:01;100920.22;;;13.34;81.58
76460;BME280;65299;46.084;18.762;2023-10-13T00:08:04;100921.78;;;13.29;81.60
76460;BME280;65299;46.084;18.762;2023-10-13T00:11:05;100927.41;;;13.28;81.88
76460;BME280;65299;46.084;18.762;2023-10-13T00:14:06;100927.13;;;13.24;82.36
76460;BME280;65299;46.084;18.762;2023-10-13T00:17:09;100921.84;;;13.40;81.75
76460;BME280;65299;46.084;18.762;2023-10-13T00:20:16;100912.47;;;13.32;82.56
76460;BME280;65299;46.084;18.762;2023-10-13T00:23:35;100915.69;;;13.39;82.71
76460;BME280;65299;46.084;18.762;2023-10-13T00:26:36;100903.16;;;13.45;82.28
76460;BME280;65299;46.084;18.762;2023-10-13T00:29:37;100901.56;;;13.64;81.41
76460;BME280;65299;46.084;18.762;2023-10-13T00:32:37;100898.91;;;13.64;81.30
76460;BME280;65299;46.084;18.762;2023-10-13T00:35:42;100901.00;;;13.77;80.92
76460;BME280;65299;46.084;18.762;2023-10-13T00:38:43;100894.06;;;13.96;79.73
76460;BME280;65299;46.084;18.762;2023-10-13T00:41:48;100890.84;;;13.94;79.49
76460;BME280;65299;46.084;18.762;2023-10-13T00:44:52;100886.56;;;13.98;79.47
76460;BME280;65299;46.084;18.762;2023-10-13T00:47:54;100883.63;;;14.04;79.36
76460;BME280;65299;46.084;18.762;2023-10-13T00:51:05;100884.94;;;14.17;78.57
76460;BME280;65299;46.084;18.762;2023-10-13T00:54:14;100891.34;;;14.16;78.64
76460;BME280;65299;46.084;18.762;2023-10-13T00:57:16;100887.63;;;14.02;79.27
76460;BME280;65299;46.084;18.762;2023-10-13T01:00:32;100888.66;;;14.16;78.62
76460;BME280;65299;46.084;18.762;2023-10-13T01:03:52;100886.25;;;14.30;78.48
76460;BME280;65299;46.084;18.762;2023-10-13T01:06:55;100886.50;;;14.33;77.92
76460;BME280;65299;46.084;18.762;2023-10-13T01:09:55;100889.44;;;14.37;77.48
76460;BME280;65299;46.084;18.762;2023-10-13T01:12:56;100893.72;;;14.18;78.30
76460;BME280;65299;46.084;18.762;2023-10-13T01:15:57;100897.72;;;14.25;78.68
76460;BME280;65299;46.084;18.762;2023-10-13T01:18:57;100890.78;;;14.24;79.47
76460;BME280;65299;46.084;18.762;2023-10-13T01:21:59;100885.13;;;14.41;78.71
76460;BME280;65299;46.084;18.762;2023-10-13T01:25:04;100882.19;;;14.47;78.69
76460;BME280;65299;46.084;18.762;2023-10-13T01:28:07;100888.06;;;14.49;78.86
76460;BME280;65299;46.084;18.762;2023-10-13T01:31:08;100888.34;;;14.38;78.47
76460;BME280;65299;46.084;18.762;2023-10-13T01:34:09;100884.34;;;14.40;79.74
76460;BME280;65299;46.084;18.762;2023-10-13T01:37:09;100879.47;;;14.52;80.53
76460;BME280;65299;46.084;18.762;2023-10-13T01:40:11;100876.28;;;14.50;79.09
76460;BME280;65299;46.084;18.762;2023-10-13T01:43:12;100876.59;;;14.39;79.44
76460;BME280;65299;46.084;18.762;2023-10-13T01:46:15;100876.56;;;14.44;79.67
76460;BME280;65299;46.084;18.762;2023-10-13T01:49:19;100870.94;;;14.55;79.40
76460;BME280;65299;46.084;18.762;2023-10-13T01:52:21;100871.69;;;14.56;79.66
76460;BME280;65299;46.084;18.762;2023-10-13T01:55:25;100871.97;;;14.59;79.70
76460;BME280;65299;46.084;18.762;2023-10-13T01:58:25;100869.81;;;14.61;79.87
76460;BME280;65299;46.084;18.762;2023-10-13T02:01:33;100870.34;;;14.63;79.75
76460;BME280;65299;46.084;18.762;2023-10-13T02:04:34;100869.53;;;14.63;80.67
76460;BME280;65299;46.084;18.762;2023-10-13T02:07:35;100871.41;;;14.62;81.26
76460;BME280;65299;46.084;18.762;2023-10-13T02:10:38;100868.16;;;14.75;80.00
76460;BME280;65299;46.084;18.762;2023-10-13T02:13:43;100874.31;;;14.71;80.60
76460;BME280;65299;46.084;18.762;2023-10-13T02:16:48;100869.25;;;14.69;80.53
76460;BME280;65299;46.084;18.762;2023-10-13T02:19:56;100872.97;;;14.68;80.76
76460;BME280;65299;46.084;18.762;2023-10-13T02:22:56;100870.31;;;14.68;82.98
76460;BME280;65299;46.084;18.762;2023-10-13T02:25:59;100865.78;;;14.69;81.41
76460;BME280;65299;46.084;18.762;2023-10-13T02:29:11;100859.66;;;14.63;80.98
76460;BME280;65299;46.084;18.762;2023-10-13T02:32:13;100863.88;;;14.74;81.09
76460;BME280;65299;46.084;18.762;2023-10-13T02:35:18;100859.91;;;14.72;82.56
76460;BME280;65299;46.084;18.762;2023-10-13T02:38:29;100869.50;;;14.73;80.72
76460;BME280;65299;46.084;18.762;2023-10-13T02:41:39;100873.22;;;14.77;80.43
76460;BME280;65299;46.084;18.762;2023-10-13T02:44:40;100864.91;;;14.78;80.51
76460;BME280;65299;46.084;18.762;2023-10-13T02:47:44;100868.69;;;14.72;80.78
76460;BME280;65299;46.084;18.762;2023-10-13T02:50:44;100872.75;;;14.65;81.58
76460;BME280;65299;46.084;18.762;2023-10-13T02:53:54;100871.44;;;14.57;81.62
76460;BME280;65299;46.084;18.762;2023-10-13T02:57:02;100868.19;;;14.65;81.80
76460;BME280;65299;46.084;18.762;2023-10-13T03:00:06;100867.97;;;14.62;81.97
76460;BME280;65299;46.084;18.762;2023-10-13T03:03:13;100883.19;;;14.56;81.71
76460;BME280;65299;46.084;18.762;2023-10-13T03:06:18;100876.28;;;14.55;81.46
76460;BME280;65299;46.084;18.762;2023-10-13T03:09:22;100874.38;;;14.56;83.92
76460;BME280;65299;46.084;18.762;2023-10-13T03:12:22;100867.41;;;14.65;82.12
76460;BME280;65299;46.084;18.762;2023-10-13T03:15:24;100874.66;;;14.59;82.17
76460;BME280;65299;46.084;18.762;2023-10-13T03:18:31;100879.69;;;14.66;81.49
76460;BME280;65299;46.084;18.762;2023-10-13T03:21:34;100883.47;;;14.60;81.80
76460;BME280;65299;46.084;18.762;2023-10-13T03:24:38;100894.44;;;14.53;82.31
76460;BME280;65299;46.084;18.762;2023-10-13T03:27:47;100896.53;;;14.61;81.69
76460;BME280;65299;46.084;18.762;2023-10-13T03:30:50;100891.25;;;14.46;82.47
76460;BME280;65299;46.084;18.762;2023-10-13T03:33:53;100882.72;;;14.49;81.95
76460;BME280;65299;46.084;18.762;2023-10-13T03:36:59;100895.50;;;14.52;82.13
76460;BME280;65299;46.084;18.762;2023-10-13T03:39:59;100897.69;;;14.45;82.55
76460;BME280;65299;46.084;18.762;2023-10-13T03:43:00;100893.97;;;14.41;82.61
76460;BME280;65299;46.084;18.762;2023-10-13T03:46:00;100886.75;;;14.37;82.58
76460;BME280;65299;46.084;18.762;2023-10-13T03:49:01;100901.94;;;14.46;82.10
76460;BME280;65299;46.084;18.762;2023-10-13T03:52:02;100911.59;;;14.27;82.63
76460;BME280;65299;46.084;18.762;2023-10-13T03:55:02;100908.94;;;14.22;82.84
76460;BME280;65299;46.084;18.762;2023-10-13T03:58:05;100910.53;;;14.28;82.35
76460;BME280;65299;46.084;18.762;2023-10-13T04:01:07;100911.34;;;14.19;82.20
76460;BME280;65299;46.084;18.762;2023-10-13T04:04:11;100910.03;;;14.06;82.82
76460;BME280;65299;46.084;18.762;2023-10-13T04:07:15;100909.00;;;13.87;82.91
76460;BME280;65299;46.084;18.762;2023-10-13T04:10:34;100910.06;;;13.81;83.24
76460;BME280;65299;46.084;18.762;2023-10-13T04:14:03;100918.88;;;13.46;84.16
76460;BME280;65299;46.084;18.762;2023-10-13T04:17:24;100917.56;;;13.44;84.84
76460;BME280;65299;46.084;18.762;2023-10-13T04:20:27;100921.81;;;13.65;84.10
76460;BME280;65299;46.084;18.762;2023-10-13T04:23:33;100920.22;;;13.79;84.25
76460;BME280;65299;46.084;18.762;2023-10-13T04:26:53;100915.41;;;13.86;83.33
76460;BME280;65299;46.084;18.762;2023-10-13T04:30:12;100922.84;;;13.99;83.54
76460;BME280;65299;46.084;18.762;2023-10-13T04:33:31;100921.78;;;14.10;83.70
76460;BME280;65299;46.084;18.762;2023-10-13T04:36:32;100910.28;;;14.14;86.44
76460;BME280;65299;46.084;18.762;2023-10-13T04:39:32;100907.59;;;14.35;84.83
76460;BME280;65299;46.084;18.762;2023-10-13T04:42:36;100917.69;;;14.48;84.77
76460;BME280;65299;46.084;18.762;2023-10-13T04:45:49;100929.66;;;14.65;88.08
76460;BME280;65299;46.084;18.762;2023-10-13T04:48:54;100933.75;;;14.96;87.76
76460;BME280;65299;46.084;18.762;2023-10-13T04:52:04;100921.56;;;15.24;87.68
76460;BME280;65299;46.084;18.762;2023-10-13T04:55:08;100921.81;;;15.28;85.63
76460;BME280;65299;46.084;18.762;2023-10-13T04:58:31;100918.59;;;15.31;85.29
76460;BME280;65299;46.084;18.762;2023-10-13T05:01:34;100924.03;;;15.16;83.71
76460;BME280;65299;46.084;18.762;2023-10-13T05:05:14;100931.59;;;14.98;84.44
76460;BME280;65299;46.084;18.762;2023-10-13T05:08:14;100932.16;;;14.95;85.22
76460;BME280;65299;46.084;18.762;2023-10-13T05:11:33;100936.75;;;14.90;85.17
76460;BME280;65299;46.084;18.762;2023-10-13T05:14:52;100943.97;;;14.84;85.60
76460;BME280;65299;46.084;18.762;2023-10-13T05:18:11;100950.41;;;14.78;85.79
76460;BME280;65299;46.084;18.762;2023-10-13T05:21:30;100953.63;;;14.80;87.18
76460;BME280;65299;46.084;18.762;2023-10-13T05:24:49;100943.22;;;14.79;86.90
76460;BME280;65299;46.084;18.762;2023-10-13T05:28:08;100938.69;;;14.74;87.78
76460;BME280;65299;46.084;18.762;2023-10-13T05:31:27;100936.53;;;14.81;86.60
76460;BME280;65299;46.084;18.762;2023-10-13T05:34:46;100942.91;;;14.85;85.76
76460;BME280;65299;46.084;18.762;2023-10-13T05:38:05;100954.09;;;14.92;85.41
76460;BME280;65299;46.084;18.762;2023-10-13T05:41:24;100946.69;;;14.79;86.39
76460;BME280;65299;46.084;18.762;2023-10-13T05:44:43;100951.47;;;14.87;85.84
76460;BME280;65299;46.084;18.762;2023-10-13T05:48:15;100968.81;;;14.90;85.90
76460;BME280;65299;46.084;18.762;2023-10-13T05:51:28;100971.50;;;14.90;85.69
76460;BME280;65299;46.084;18.762;2023-10-13T05:54:35;100977.91;;;14.89;86.30
76460;BME280;65299;46.084;18.762;2023-10-13T05:57:54;100985.63;;;14.90;86.08
76460;BME280;65299;46.084;18.762;2023-10-13T06:01:13;100995.28;;;14.91;86.31
76460;BME280;65299;46.084;18.762;2023-10-13T06:04:32;101007.25;;;15.04;87.08
76460;BME280;65299;46.084;18.762;2023-10-13T06:07:56;100998.09;;;15.15;86.49
76460;BME280;65299;46.084;18.762;2023-10-13T06:11:15;101002.28;;;15.31;85.20
76460;BME280;65299;46.084;18.762;2023-10-13T06:14:34;101003.03;;;15.42;85.61
76460;BME280;65299;46.084;18.762;2023-10-13T06:17:53;101006.16;;;15.59;86.29
76460;BME280;65299;46.084;18.762;2023-10-13T06:21:12;100995.09;;;16.04;86.68
76460;BME280;65299;46.084;18.762;2023-10-13T06:24:31;101010.25;;;16.42;85.55
76460;BME280;65299;46.084;18.762;2023-10-13T06:27:50;101013.19;;;16.70;84.23
76460;BME280;65299;46.084;18.762;2023-10-13T06:31:11;101026.66;;;16.88;83.26
76460;BME280;65299;46.084;18.762;2023-10-13T06:34:25;101022.19;;;17.02;82.85
76460;BME280;65299;46.084;18.762;2023-10-13T06:37:37;101030.56;;;17.19;82.04
76460;BME280;65299;46.084;18.762;2023-10-13T06:40:45;101039.13;;;17.21;81.85
76460;BME280;65299;46.084;18.762;2023-10-13T06:43:48;101032.56;;;17.32;81.32
76460;BME280;65299;46.084;18.762;2023-10-13T06:46:59;101032.56;;;17.51;80.93
76460;BME280;65299;46.084;18.762;2023-10-13T06:50:04;101040.91;;;17.68;80.51
76460;BME280;65299;46.084;18.762;2023-10-13T06:53:06;101046.50;;;17.72;80.73
76460;BME280;65299;46.084;18.762;2023-10-13T06:56:06;101056.56;;;17.98;79.67
76460;BME280;65299;46.084;18.762;2023-10-13T06:59:07;101050.28;;;18.21;78.88
76460;BME280;65299;46.084;18.762;2023-10-13T07:02:08;101054.47;;;18.28;78.43
76460;BME280;65299;46.084;18.762;2023-10-13T07:05:10;101064.78;;;18.20;78.71
76460;BME280;65299;46.084;18.762;2023-10-13T07:08:11;101066.03;;;18.28;77.89
76460;BME280;65299;46.084;18.762;2023-10-13T07:11:14;101062.25;;;18.43;77.57
76460;BME280;65299;46.084;18.762;2023-10-13T07:14:19;101064.22;;;18.56;77.11
76460;BME280;65299;46.084;18.762;2023-10-13T07:17:20;101063.75;;;18.81;75.88
76460;BME280;65299;46.084;18.762;2023-10-13T07:20:27;101062.94;;;18.94;74.94
76460;BME280;65299;46.084;18.762;2023-10-13T07:23:27;101066.53;;;19.03;74.71
76460;BME280;65299;46.084;18.762;2023-10-13T07:26:30;101067.31;;;19.44;74.05
76460;BME280;65299;46.084;18.762;2023-10-13T07:29:30;101054.94;;;19.43;73.65
76460;BME280;65299;46.084;18.762;2023-10-13T07:32:34;101053.41;;;19.64;73.69
76460;BME280;65299;46.084;18.762;2023-10-13T07:35:34;101053.75;;;19.71;73.24
76460;BME280;65299;46.084;18.762;2023-10-13T07:38:36;101047.09;;;19.69;73.17
76460;BME280;65299;46.084;18.762;2023-10-13T07:41:38;101052.25;;;19.79;72.59
76460;BME280;65299;46.084;18.762;2023-10-13T07:44:42;101045.34;;;19.87;72.27
76460;BME280;65299;46.084;18.762;2023-10-13T07:47:46;101044.78;;;19.76;72.92
76460;BME280;65299;46.084;18.762;2023-10-13T07:50:47;101048.78;;;19.65;74.38
76460;BME280;65299;46.084;18.762;2023-10-13T07:53:49;101054.13;;;19.56;74.16
76460;BME280;65299;46.084;18.762;2023-10-13T07:56:49;101044.72;;;19.90;72.56
76460;BME280;65299;46.084;18.762;2023-10-13T07:59:50;101042.47;;;20.27;72.93
76460;BME280;65299;46.084;18.762;2023-10-13T08:03:01;101044.19;;;20.23;73.16
76460;BME280;65299;46.084;18.762;2023-10-13T08:06:17;101048.63;;;20.58;70.70
76460;BME280;65299;46.084;18.762;2023-10-13T08:09:18;101052.06;;;20.81;69.21
76460;BME280;65299;46.084;18.762;2023-10-13T08:12:30;101046.69;;;20.90;68.04
76460;BME280;65299;46.084;18.762;2023-10-13T08:15:31;101054.97;;;20.93;67.96
76460;BME280;65299;46.084;18.762;2023-10-13T08:18:34;101060.31;;;20.76;66.79
76460;BME280;65299;46.084;18.762;2023-10-13T08:21:36;101053.84;;;20.86;66.71
76460;BME280;65299;46.084;18.762;2023-10-13T08:24:37;101054.00;;;20.89;66.20
76460;BME280;65299;46.084;18.762;2023-10-13T08:27:37;101058.22;;;21.04;65.77
76460;BME280;65299;46.084;18.762;2023-10-13T08:31:10;101053.84;;;21.33;65.52
76460;BME280;65299;46.084;18.762;2023-10-13T08:34:22;101050.34;;;21.41;64.50
76460;BME280;65299;46.084;18.762;2023-10-13T08:37:25;101049.56;;;21.58;64.09
76460;BME280;65299;46.084;18.762;2023-10-13T08:40:28;101054.00;;;21.71;63.51
76460;BME280;65299;46.084;18.762;2023-10-13T08:44:01;101053.38;;;21.66;62.81
76460;BME280;65299;46.084;18.762;2023-10-13T08:47:03;101050.06;;;21.86;63.18
76460;BME280;65299;46.084;18.762;2023-10-13T08:50:06;101057.53;;;22.06;62.58
76460;BME280;65299;46.084;18.762;2023-10-13T08:53:32;101056.56;;;22.10;62.01
76460;BME280;65299;46.084;18.762;2023-10-13T08:56:33;101055.47;;;22.03;62.00
76460;BME280;65299;46.084;18.762;2023-10-13T08:59:35;101047.66;;;22.10;61.54
76460;BME280;65299;46.084;18.762;2023-10-13T09:02:53;101046.69;;;22.14;61.16
76460;BME280;65299;46.084;18.762;2023-10-13T09:06:13;101040.81;;;22.21;60.25
76460;BME280;65299;46.084;18.762;2023-10-13T09:09:20;101035.03;;;22.31;60.34
76460;BME280;65299;46.084;18.762;2023-10-13T09:12:36;101037.25;;;22.38;59.40
76460;BME280;65299;46.084;18.762;2023-10-13T09:15:36;101034.97;;;22.48;58.95
76460;BME280;65299;46.084;18.762;2023-10-13T09:19:01;101037.31;;;22.67;57.42
76460;BME280;65299;46.084;18.762;2023-10-13T09:22:02;101034.31;;;22.97;57.67
76460;BME280;65299;46.084;18.762;2023-10-13T09:25:03;101030.38;;;23.16;57.25
76460;BME280;65299;46.084;18.762;2023-10-13T09:28:13;101041.13;;;23.33;55.86
76460;BME280;65299;46.084;18.762;2023-10-13T09:31:22;101036.59;;;23.45;55.78
76460;BME280;65299;46.084;18.762;2023-10-13T09:34:26;101035.66;;;23.62;55.79
76460;BME280;65299;46.084;18.762;2023-10-13T09:37:31;101039.47;;;23.61;55.40
76460;BME280;65299;46.084;18.762;2023-10-13T09:40:33;101043.69;;;23.70;55.67
76460;BME280;65299;46.084;18.762;2023-10-13T09:43:38;101037.56;;;23.82;53.73
76460;BME280;65299;46.084;18.762;2023-10-13T09:46:39;101038.31;;;23.82;53.88
76460;BME280;65299;46.084;18.762;2023-10-13T09:49:44;101032.72;;;23.87;54.21
76460;BME280;65299;46.084;18.762;2023-10-13T09:52:45;101036.69;;;23.90;53.32
76460;BME280;65299;46.084;18.762;2023-10-13T09:59:25;101029.69;;;24.34;51.81
76460;BME280;65299;46.084;18.762;2023-10-13T10:02:35;101018.66;;;24.39;51.34
76460;BME280;65299;46.084;18.762;2023-10-13T10:05:35;101019.63;;;24.22;51.82
76460;BME280;65299;46.084;18.762;2023-10-13T10:08:36;101012.88;;;24.40;51.26
76460;BME280;65299;46.084;18.762;2023-10-13T10:15:34;101018.69;;;24.87;50.24
76460;BME280;65299;46.084;18.762;2023-10-13T10:18:35;101009.47;;;25.16;49.78
76460;BME280;65299;46.084;18.762;2023-10-13T10:21:36;101007.59;;;25.04;50.15
76460;BME280;65299;46.084;18.762;2023-10-13T10:24:41;101004.41;;;25.02;52.80
76460;BME280;65299;46.084;18.762;2023-10-13T10:27:41;101006.59;;;25.36;51.91
76460;BME280;65299;46.084;18.762;2023-10-13T10:30:42;101007.63;;;25.32;51.78
76460;BME280;65299;46.084;18.762;2023-10-13T10:33:44;101006.88;;;25.19;53.37
76460;BME280;65299;46.084;18.762;2023-10-13T10:36:47;101003.34;;;25.19;50.43
76460;BME280;65299;46.084;18.762;2023-10-13T10:39:48;101003.84;;;24.97;51.53
76460;BME280;65299;46.084;18.762;2023-10-13T10:42:51;101005.25;;;25.42;52.03
76460;BME280;65299;46.084;18.762;2023-10-13T10:45:53;100998.53;;;25.52;51.11
76460;BME280;65299;46.084;18.762;2023-10-13T10:49:04;100992.00;;;25.69;50.81
76460;BME280;65299;46.084;18.762;2023-10-13T10:52:08;100994.81;;;25.72;50.99
76460;BME280;65299;46.084;18.762;2023-10-13T10:55:19;100989.50;;;25.76;50.19
76460;BME280;65299;46.084;18.762;2023-10-13T10:58:20;100982.88;;;25.61;50.21
76460;BME280;65299;46.084;18.762;2023-10-13T11:01:31;100987.75;;;25.56;50.08
76460;BME280;65299;46.084;18.762;2023-10-13T11:04:38;100990.22;;;25.33;50.96
76460;BME280;65299;46.084;18.762;2023-10-13T11:07:50;100993.41;;;25.63;48.63
76460;BME280;65299;46.084;18.762;2023-10-13T11:10:51;100985.78;;;25.68;48.90
76460;BME280;65299;46.084;18.762;2023-10-13T11:13:51;100983.88;;;25.84;50.07
76460;BME280;65299;46.084;18.762;2023-10-13T11:16:56;100983.06;;;25.68;48.07
76460;BME280;65299;46.084;18.762;2023-10-13T11:20:17;100986.66;;;25.72;47.84
76460;BME280;65299;46.084;18.762;2023-10-13T11:23:18;100983.25;;;25.75;46.65
76460;BME280;65299;46.084;18.762;2023-10-13T11:26:33;100979.00;;;25.90;45.60
76460;BME280;65299;46.084;18.762;2023-10-13T11:29:34;100976.16;;;25.86;45.78
76460;BME280;65299;46.084;18.762;2023-10-13T11:32:34;100980.78;;;25.98;46.21
76460;BME280;65299;46.084;18.762;2023-10-13T11:35:36;100978.06;;;25.98;44.46
76460;BME280;65299;46.084;18.762;2023-10-13T11:38:55;100971.22;;;26.04;44.72
76460;BME280;65299;46.084;18.762;2023-10-13T11:41:58;100963.13;;;25.92;42.56
76460;BME280;65299;46.084;18.762;2023-10-13T11:44:58;100973.00;;;25.84;44.15
76460;BME280;65299;46.084;18.762;2023-10-13T11:48:18;100962.94;;;26.00;43.81
76460;BME280;65299;46.084;18.762;2023-10-13T11:51:34;100963.13;;;25.92;44.30
76460;BME280;65299;46.084;18.762;2023-10-13T11:54:38;100949.63;;;26.11;43.88
76460;BME280;65299;46.084;18.762;2023-10-13T11:57:42;100953.25;;;26.15;44.03
76460;BME280;65299;46.084;18.762;2023-10-13T12:00:42;100939.22;;;26.28;41.51
76460;BME280;65299;46.084;18.762;2023-10-13T12:03:54;100934.16;;;25.99;42.79
76460;BME280;65299;46.084;18.762;2023-10-13T12:07:13;100935.44;;;26.17;43.45
76460;BME280;65299;46.084;18.762;2023-10-13T12:10:32;100927.88;;;26.26;42.63
76460;BME280;65299;46.084;18.762;2023-10-13T12:13:49;100921.28;;;26.27;42.30
76460;BME280;65299;46.084;18.762;2023-10-13T12:16:50;100910.41;;;26.27;42.97
76460;BME280;65299;46.084;18.762;2023-10-13T12:19:56;100913.91;;;26.28;42.96
76460;BME280;65299;46.084;18.762;2023-10-13T12:22:57;100909.38;;;26.67;43.77
76460;BME280;65299;46.084;18.762;2023-10-13T12:26:00;100909.56;;;26.58;45.09
76460;BME280;65299;46.084;18.762;2023-10-13T12:29:00;100908.84;;;26.26;45.31
76460;BME280;65299;46.084;18.762;2023-10-13T12:32:06;100914.00;;;26.32;45.88
76460;BME280;65299;46.084;18.762;2023-10-13T12:35:13;100906.00;;;26.39;44.07
76460;BME280;65299;46.084;18.762;2023-10-13T12:38:13;100904.88;;;26.24;45.72
76460;BME280;65299;46.084;18.762;2023-10-13T12:41:36;100905.13;;;26.03;45.92
76460;BME280;65299;46.084;18.762;2023-10-13T12:44:55;100904.94;;;25.96;45.57
76460;BME280;65299;46.084;18.762;2023-10-13T12:48:14;100897.06;;;26.07;46.10
76460;BME280;65299;46.084;18.762;2023-10-13T12:51:33;100898.19;;;26.21;45.82
76460;BME280;65299;46.084;18.762;2023-10-13T12:54:33;100894.44;;;26.26;45.93
76460;BME280;65299;46.084;18.762;2023-10-13T12:57:36;100894.50;;;26.29;45.53
76460;BME280;65299;46.084;18.762;2023-10-13T13:00:43;100892.84;;;26.41;45.05
76460;BME280;65299;46.084;18.762;2023-10-13T13:03:49;100899.28;;;26.52;45.96
76460;BME280;65299;46.084;18.762;2023-10-13T13:06:50;100894.03;;;26.59;45.43
76460;BME280;65299;46.084;18.762;2023-10-13T13:09:50;100898.03;;;26.65;44.77
76460;BME280;65299;46.084;18.762;2023-10-13T13:12:55;100880.94;;;26.14;45.93
76460;BME280;65299;46.084;18.762;2023-10-13T13:15:56;100890.28;;;26.16;46.38
76460;BME280;65299;46.084;18.762;2023-10-13T13:18:56;100880.38;;;26.08;45.81
76460;BME280;65299;46.084;18.762;2023-10-13T13:21:57;100883.97;;;26.12;45.53
76460;BME280;65299;46.084;18.762;2023-10-13T13:24:57;100882.84;;;26.13;45.44
76460;BME280;65299;46.084;18.762;2023-10-13T13:27:58;100882.03;;;25.97;45.22
76460;BME280;65299;46.084;18.762;2023-10-13T13:31:04;100885.00;;;25.92;45.76
76460;BME280;65299;46.084;18.762;2023-10-13T13:34:08;100884.56;;;25.90;45.49
76460;BME280;65299;46.084;18.762;2023-10-13T13:37:12;100884.66;;;25.78;45.64
76460;BME280;65299;46.084;18.762;2023-10-13T13:40:13;100875.81;;;25.81;44.52
76460;BME280;65299;46.084;18.762;2023-10-13T13:43:15;100884.69;;;25.94;45.47
76460;BME280;65299;46.084;18.762;2023-10-13T13:46:31;100883.38;;;25.88;45.59
76460;BME280;65299;46.084;18.762;2023-10-13T13:49:41;100877.50;;;25.86;46.35
76460;BME280;65299;46.084;18.762;2023-10-13T13:52:46;100868.59;;;26.04;45.21
76460;BME280;65299;46.084;18.762;2023-10-13T13:55:47;100870.72;;;26.11;45.19
76460;BME280;65299;46.084;18.762;2023-10-13T13:58:52;100871.59;;;26.31;44.66
76460;BME280;65299;46.084;18.762;2023-10-13T14:01:53;100872.81;;;26.33;45.99
76460;BME280;65299;46.084;18.762;2023-10-13T14:04:59;100866.66;;;26.36;45.40
76460;BME280;65299;46.084;18.762;2023-10-13T14:08:02;100865.81;;;26.32;44.71
76460;BME280;65299;46.084;18.762;2023-10-13T14:11:11;100860.78;;;26.34;43.81
76460;BME280;65299;46.084;18.762;2023-10-13T14:14:14;100865.28;;;26.11;45.83
76460;BME280;65299;46.084;18.762;2023-10-13T14:17:33;100855.47;;;26.22;45.40
76460;BME280;65299;46.084;18.762;2023-10-13T14:20:35;100850.19;;;26.13;45.94
76460;BME280;65299;46.084;18.762;2023-10-13T14:23:40;100848.97;;;26.11;46.29
76460;BME280;65299;46.084;18.762;2023-10-13T14:26:40;100849.75;;;26.11;46.23
76460;BME280;65299;46.084;18.762;2023-10-13T14:29:43;100845.38;;;26.22;46.77
76460;BME280;65299;46.084;18.762;2023-10-13T14:32:44;100840.38;;;26.24;45.96
76460;BME280;65299;46.084;18.762;2023-10-13T14:35:44;100840.19;;;26.02;46.40
76460;BME280;65299;46.084;18.762;2023-10-13T14:38:47;100837.97;;;25.76;47.91
76460;BME280;65299;46.084;18.762;2023-10-13T14:41:50;100832.66;;;25.80;47.88
76460;BME280;65299;46.084;18.762;2023-10-13T14:44:51;100833.44;;;25.65;48.64
76460;BME280;65299;46.084;18.762;2023-10-13T14:47:55;100831.50;;;25.65;49.14
76460;BME280;65299;46.084;18.762;2023-10-13T14:50:56;100832.19;;;25.62;48.28
76460;BME280;65299;46.084;18.762;2023-10-13T14:53:56;100834.84;;;25.59;48.45
76460;BME280;65299;46.084;18.762;2023-10-13T14:56:56;100833.66;;;25.44;48.57
76460;BME280;65299;46.084;18.762;2023-10-13T14:59:57;100832.91;;;25.31;48.49
76460;BME280;65299;46.084;18.762;2023-10-13T15:02:58;100831.94;;;25.24;48.47
76460;BME280;65299;46.084;18.762;2023-10-13T15:06:01;100831.66;;;25.13;49.39
76460;BME280;65299;46.084;18.762;2023-10-13T15:09:01;100828.53;;;24.99;49.83
76460;BME280;65299;46.084;18.762;2023-10-13T15:12:04;100837.22;;;24.65;52.83
76460;BME280;65299;46.084;18.762;2023-10-13T15:15:06;100835.03;;;24.31;54.75
76460;BME280;65299;46.084;18.762;2023-10-13T15:18:13;100839.19;;;23.92;55.88
76460;BME280;65299;46.084;18.762;2023-10-13T15:21:23;100824.84;;;23.79;56.15
76460;BME280;65299;46.084;18.762;2023-10-13T15:24:28;100833.97;;;23.75;55.73
76460;BME280;65299;46.084;18.762;2023-10-13T15:27:29;100828.09;;;23.73;55.54
76460;BME280;65299;46.084;18.762;2023-10-13T15:30:29;100826.31;;;23.77;55.23
76460;BME280;65299;46.084;18.762;2023-10-13T15:33:54;100822.69;;;23.73;55.06
76460;BME280;65299;46.084;18.762;2023-10-13T15:36:56;100827.19;;;23.69;55.04
76460;BME280;65299;46.084;18.762;2023-10-13T15:39:56;100823.13;;;23.75;54.92
76460;BME280;65299;46.084;18.762;2023-10-13T15:43:00;100815.91;;;23.67;54.38
76460;BME280;65299;46.084;18.762;2023-10-13T15:46:00;100824.72;;;23.64;54.64
76460;BME280;65299;46.084;18.762;2023-10-13T15:49:04;100818.31;;;23.36;55.84
76460;BME280;65299;46.084;18.762;2023-10-13T15:52:08;100820.50;;;23.22;57.42
76460;BME280;65299;46.084;18.762;2023-10-13T15:55:09;100820.47;;;23.09;58.71
76460;BME280;65299;46.084;18.762;2023-10-13T15:58:13;100813.44;;;22.96;59.57
76460;BME280;65299;46.084;18.762;2023-10-13T16:01:14;100823.66;;;22.70;60.57
76460;BME280;65299;46.084;18.762;2023-10-13T16:04:14;100820.28;;;22.53;61.40
76460;BME280;65299;46.084;18.762;2023-10-13T16:07:15;100823.97;;;22.48;61.62
76460;BME280;65299;46.084;18.762;2023-10-13T16:10:22;100826.81;;;22.52;61.36